Observations for BRIZE NORTON RA, United Kingdom (EGVN)

EGVN 220450Z 00000KT 0200 FG OVC001 17/17 Q1019 RED BECMG 2000 BR BKN004 YLO2   
EGVN 220450Z 00000KT 0200 FG OVC001 17/17 Q1019 BECMG 2000 BR BKN004
EGVN 220350Z 00000KT 0200 FG BKN001 17/17 Q1019 NOSIG   
EGVN 220350Z 00000KT 0200 FG BKN001 17/17 Q1019 RED NOSIG
EGVN 220250Z 00000KT 0200 FG BKN001 17/17 Q1019 NOSIG   
EGVN 220250Z 00000KT 0200 FG BKN001 17/17 Q1019 RED NOSIG
EGVN 220150Z 00000KT 0200 FG BKN001 17/17 Q1020 RED NOSIG   
EGVN 220150Z 00000KT 0200 FG BKN001 17/17 Q1020 NOSIG
EGVN 220050Z 00000KT 0200 FG VV/// 17/16 Q1020 NOSIG
EGVN 220050Z 00000KT 0200 FG VV/// 17/16 Q1020 RED NOSIG
EGVN 212350Z 00000KT 0200 FG VV/// 16/16 Q1020 RED NOSIG
EGVN 212350Z 00000KT 0200 FG VV/// 16/16 Q1020 NOSIG
EGVN 212332Z 00000KT 0400 FG OVC001 16/16 Q1020 RED NOSIG
EGVN 212320Z 05001KT 1500 MIFG BR BKN002 16/16 Q1020 AMB BECMG 0700 FG BKN001 RED
EGVN 212250Z 00000KT 4000 BR FEW032 17/17 Q1020 BECMG 2000  
EGVN 212250Z 00000KT 4000 BR FEW032 17/17 Q1020 GRN BECMG 2000 YLO2
EGVN 212150Z 10001KT 9999 FEW012 SCT036 18/17 Q1020 BLU BECMG 4000 BR GRN   
EGVN 212150Z 10001KT 9999 FEW012 SCT036 18/17 Q1020 BECMG 4000 BR
EGVN 212050Z 12003KT 9999 FEW012 BKN035 19/18 Q1021 BLU BECMG 4000 BR GRN   
EGVN 212050Z 12003KT 9999 FEW012 BKN035 19/18 Q1021 BECMG 4000 BR
EGVN 211950Z 11003KT 9999 FEW022 BKN040 19/17 Q1020 BLU NOSIG   
EGVN 211950Z 11003KT 9999 FEW022 BKN040 19/17 Q1020 NOSIG
EGVN 211850Z 12004KT 9999 FEW028 BKN040 19/17 Q1020 BLU NOSIG   
EGVN 211850Z 12004KT 9999 FEW028 BKN040 19/17 Q1020 NOSIG
EGVN 211750Z 11004KT 9999 FEW020 BKN035 20/17 Q1020 BLU NOSIG   
EGVN 211750Z 11004KT 9999 FEW020 BKN035 20/17 Q1020 NOSIG
EGVN 211650Z 16002KT 9999 FEW013 BKN025 20/17 Q1020 BLU TEMPO SCT020 WHT
EGVN 211650Z 16002KT 9999 FEW013 BKN025 20/17 Q1020 TEMPO SCT020
EGVN 211637Z 15003KT 9999 FEW013 SCT020 BKN040 20/17 Q1020 WHT TEMPO FEW020 BLU
EGVN 211550Z 09004KT 9999 SCT013 BKN018 20/17 Q1020 NOSIG   
EGVN 211550Z 09004KT 9999 SCT013 BKN018 20/17 Q1020 GRN NOSIG
EGVN 211450Z 00000KT 9999 BKN013 BKN016 19/16 Q1021 NOSIG   
EGVN 211450Z 00000KT 9999 BKN013 BKN016 19/16 Q1021 GRN NOSIG
EGVN 211350Z 15002KT 9999 BKN012 BKN014 19/16 Q1020 GRN NOSIG   
EGVN 211350Z 15002KT 9999 BKN012 BKN014 19/16 Q1020 NOSIG
EGVN 211250Z 16003KT 9999 BKN010 BKN020 18/16 Q1021 NOSIG   
EGVN 211250Z 16003KT 9999 BKN010 BKN020 18/16 Q1021 GRN NOSIG
EGVN 211150Z 13002KT 9999 BKN008 BKN012 17/15 Q1021 NOSIG   
EGVN 211150Z 13002KT 9999 BKN008 BKN012 17/15 Q1021 GRN NOSIG
EGVN 211050Z 15003KT 9999 BKN008 BKN012 17/15 Q1021 GRN NOSIG   
EGVN 211050Z 15003KT 9999 BKN008 BKN012 17/15 Q1021 NOSIG
EGVN 211027Z 07004KT 9999 BKN007 BKN012 17/15 Q1021 GRN NOSIG
EGVN 210950Z 12002KT 8000 6000SW BR FEW005 BKN006 16/15 Q1021 BECMG 9999 NSW BKN008 
EGVN 210950Z 12002KT 8000 6000SW BR FEW005 BKN006 16/15 Q1021 YLO1 BECMG 9999 NSW BKN008 GRN
EGVN 210850Z 07002KT 9999 FEW004 BKN005 15/15 Q1021 YLO1 BECMG BKN008 GRN   
EGVN 210850Z 07002KT 9999 FEW004 BKN005 15/15 Q1021 BECMG BKN008
EGVN 210831Z 10003KT 8000 -DZ BKN004 BKN006 15/14 Q1021 YLO2 BECMG 9999 NSW BKN007 GRN
EGVN 210815Z 00000KT 7000 BR FEW003 OVC004 15/14 Q1021 YLO2 BECMG 9999 NSW BKN007 GRN
EGVN 210750Z 11003KT 4000 BR FEW002 BKN003 15/14 Q1021 BECMG 6000 BKN006
EGVN 210750Z 11003KT 4000 BR FEW002 BKN003 15/14 Q1021 YLO2 BECMG 6000 BKN006 YLO1
EGVN 210635Z 11004KT 2000 BR FEW002 OVC003 14/14 Q1020 BECMG 3000 BKN005
EGVN 210635Z 11004KT 2000 BR FEW002 OVC003 14/14 Q1020 YLO2 BECMG 3000 BKN005 YLO1
EGVN 210550Z 08003KT 0800 FG BKN002 14/14 Q1020 BECMG 2000 BR BKN003
EGVN 210550Z 08003KT 0800 FG BKN002 14/14 Q1020 AMB BECMG 2000 BR BKN003 YLO2
EGVN 210514Z 08003KT 1000 BR OVC002 14/14 Q1020 AMB NOSIG
EGVN 210438Z 08004KT 2000 -DZ BKN002 14/14 Q1020 NOSIG  
EGVN 210438Z 08004KT 2000 -DZ BKN002 14/14 Q1020 AMB NOSIG